< Typhoon 197920 1979 Season Typhoon 197922 >
Typhoon 197921 (VERA)
General InformationTrack Information on Google MapsDetailed Wind InformationList of All Images || Disaster Info.ResourceGoogle EarthGE AnimationAtom FeedGeoJSON
Detalied Best Track (Time Zone = UTC)
Year Month Day Hour Lat. Long. Pressure (hPa) Wind (kt) Class Image Chart
1979 11 1 12 6.2 148.3 1006 0 2 Image Chart
1979 11 1 18 6.6 147.1 1004 0 2 Image Chart
1979 11 2 00 7.0 145.8 1004 0 2 Image Chart
1979 11 2 06 7.4 144.6 994 35 3 Image Chart
1979 11 2 12 7.7 143.2 985 55 4 Image Chart
1979 11 2 18 8.1 141.1 980 55 4 Image Chart
1979 11 3 00 8.4 140.5 980 55 4 Image Chart
1979 11 3 06 8.7 139.1 980 55 4 Image Chart
1979 11 3 12 9.1 137.3 975 65 5 Image Chart
1979 11 3 18 10.0 135.0 955 80 5 Image Chart
1979 11 4 00 10.5 133.1 940 95 5 Image Chart
1979 11 4 06 11.0 131.2 930 100 5 Image Chart
1979 11 4 12 11.6 129.5 920 105 5 Image Chart
1979 11 4 18 12.1 127.6 915 110 5 Image Chart
1979 11 5 00 12.6 126.1 920 105 5 Image Chart
1979 11 5 06 13.4 125.0 920 105 5 Image Chart
1979 11 5 12 14.1 124.2 930 100 5 Image Chart
1979 11 5 18 14.8 123.7 935 95 5 Image Chart
1979 11 6 00 15.5 122.9 940 90 5 Image Chart
1979 11 6 06 16.2 122.4 950 85 5 Image Chart
1979 11 6 12 17.0 122.0 960 75 5 Image Chart
1979 11 6 18 17.7 121.7 980 65 5 Image Chart
1979 11 7 00 17.9 121.0 990 50 4 Image Chart
1979 11 7 06 17.8 120.1 996 35 3 Image Chart
1979 11 7 12 17.7 119.5 1000 0 2 Image Chart
1979 11 7 18 17.6 118.7 1000 0 2 Image Chart
1979 11 8 00 17.5 118.0 1004 0 2 Image Chart
1979 11 8 06 17.5 117.0 1004 0 2 Image Chart
Japan Meteorological Agency Best Track Data | Correction Date : 1992-10-21
< Typhoon 197920 1979 Season Typhoon 197922 >

Help